sensor_id;sensor_type;location;lat;lon;timestamp;P1;durP1;ratioP1;P2;durP2;ratioP2
50092;SDS011;35974;47.752;10.290;2024-01-30T00:01:23;8.60;;;4.43;;
50092;SDS011;35974;47.752;10.290;2024-01-30T00:03:49;9.30;;;4.35;;
50092;SDS011;35974;47.752;10.290;2024-01-30T00:06:20;10.05;;;3.63;;
50092;SDS011;35974;47.752;10.290;2024-01-30T00:08:50;7.95;;;3.60;;
50092;SDS011;35974;47.752;10.290;2024-01-30T00:11:16;6.15;;;3.70;;
50092;SDS011;35974;47.752;10.290;2024-01-30T00:13:42;7.95;;;3.83;;
50092;SDS011;35974;47.752;10.290;2024-01-30T00:16:19;8.63;;;3.83;;
50092;SDS011;35974;47.752;10.290;2024-01-30T00:18:46;8.38;;;4.63;;
50092;SDS011;35974;47.752;10.290;2024-01-30T00:21:13;10.02;;;4.50;;
50092;SDS011;35974;47.752;10.290;2024-01-30T00:23:39;6.50;;;3.53;;
50092;SDS011;35974;47.752;10.290;2024-01-30T00:26:06;10.25;;;3.90;;
50092;SDS011;35974;47.752;10.290;2024-01-30T00:28:32;7.82;;;3.75;;
50092;SDS011;35974;47.752;10.290;2024-01-30T00:30:59;7.65;;;3.25;;
50092;SDS011;35974;47.752;10.290;2024-01-30T00:33:25;9.27;;;4.25;;
50092;SDS011;35974;47.752;10.290;2024-01-30T00:35:52;7.57;;;3.92;;
50092;SDS011;35974;47.752;10.290;2024-01-30T00:38:20;7.28;;;3.60;;
50092;SDS011;35974;47.752;10.290;2024-01-30T00:40:47;7.90;;;3.60;;
50092;SDS011;35974;47.752;10.290;2024-01-30T00:43:13;6.32;;;3.30;;
50092;SDS011;35974;47.752;10.290;2024-01-30T00:45:40;7.28;;;3.40;;
50092;SDS011;35974;47.752;10.290;2024-01-30T00:48:06;5.55;;;3.15;;
50092;SDS011;35974;47.752;10.290;2024-01-30T00:50:33;6.35;;;3.03;;
50092;SDS011;35974;47.752;10.290;2024-01-30T00:53:00;4.85;;;2.70;;
50092;SDS011;35974;47.752;10.290;2024-01-30T00:55:26;5.68;;;2.80;;
50092;SDS011;35974;47.752;10.290;2024-01-30T00:57:53;4.85;;;2.97;;
50092;SDS011;35974;47.752;10.290;2024-01-30T01:00:19;5.53;;;2.90;;
50092;SDS011;35974;47.752;10.290;2024-01-30T01:02:47;5.30;;;3.10;;
50092;SDS011;35974;47.752;10.290;2024-01-30T01:05:13;6.15;;;2.60;;
50092;SDS011;35974;47.752;10.290;2024-01-30T01:07:40;5.60;;;3.13;;
50092;SDS011;35974;47.752;10.290;2024-01-30T01:10:09;6.70;;;3.53;;
50092;SDS011;35974;47.752;10.290;2024-01-30T01:12:37;6.88;;;3.60;;
50092;SDS011;35974;47.752;10.290;2024-01-30T01:15:04;5.75;;;3.05;;
50092;SDS011;35974;47.752;10.290;2024-01-30T01:17:31;7.13;;;3.10;;
50092;SDS011;35974;47.752;10.290;2024-01-30T01:19:57;6.07;;;3.08;;
50092;SDS011;35974;47.752;10.290;2024-01-30T01:22:25;5.72;;;3.15;;
50092;SDS011;35974;47.752;10.290;2024-01-30T01:24:51;7.47;;;3.15;;
50092;SDS011;35974;47.752;10.290;2024-01-30T01:27:17;7.20;;;3.42;;
50092;SDS011;35974;47.752;10.290;2024-01-30T01:29:44;5.13;;;3.25;;
50092;SDS011;35974;47.752;10.290;2024-01-30T01:32:11;6.22;;;3.20;;
50092;SDS011;35974;47.752;10.290;2024-01-30T01:34:38;6.53;;;3.40;;
50092;SDS011;35974;47.752;10.290;2024-01-30T01:37:04;5.40;;;2.72;;
50092;SDS011;35974;47.752;10.290;2024-01-30T01:39:33;5.68;;;3.08;;
50092;SDS011;35974;47.752;10.290;2024-01-30T01:42:00;7.28;;;3.22;;
50092;SDS011;35974;47.752;10.290;2024-01-30T01:44:27;7.35;;;3.55;;
50092;SDS011;35974;47.752;10.290;2024-01-30T01:46:54;7.85;;;3.17;;
50092;SDS011;35974;47.752;10.290;2024-01-30T01:49:22;5.45;;;3.03;;
50092;SDS011;35974;47.752;10.290;2024-01-30T01:51:50;5.82;;;2.95;;
50092;SDS011;35974;47.752;10.290;2024-01-30T01:54:20;6.15;;;3.35;;
50092;SDS011;35974;47.752;10.290;2024-01-30T01:56:47;7.28;;;2.83;;
50092;SDS011;35974;47.752;10.290;2024-01-30T01:59:14;6.43;;;3.30;;
50092;SDS011;35974;47.752;10.290;2024-01-30T02:01:40;6.03;;;3.40;;
50092;SDS011;35974;47.752;10.290;2024-01-30T02:04:08;5.93;;;2.85;;
50092;SDS011;35974;47.752;10.290;2024-01-30T02:06:35;6.40;;;3.10;;
50092;SDS011;35974;47.752;10.290;2024-01-30T02:09:01;6.15;;;3.30;;
50092;SDS011;35974;47.752;10.290;2024-01-30T02:11:28;5.22;;;2.83;;
50092;SDS011;35974;47.752;10.290;2024-01-30T02:13:55;6.95;;;3.38;;
50092;SDS011;35974;47.752;10.290;2024-01-30T02:16:21;6.68;;;3.35;;
50092;SDS011;35974;47.752;10.290;2024-01-30T02:18:48;5.85;;;3.00;;
50092;SDS011;35974;47.752;10.290;2024-01-30T02:21:18;5.18;;;2.80;;
50092;SDS011;35974;47.752;10.290;2024-01-30T02:23:46;6.05;;;2.95;;
50092;SDS011;35974;47.752;10.290;2024-01-30T02:26:13;6.00;;;3.20;;
50092;SDS011;35974;47.752;10.290;2024-01-30T02:28:39;5.30;;;3.03;;
50092;SDS011;35974;47.752;10.290;2024-01-30T02:31:06;5.00;;;2.88;;
50092;SDS011;35974;47.752;10.290;2024-01-30T02:33:32;4.45;;;2.78;;
50092;SDS011;35974;47.752;10.290;2024-01-30T02:35:59;5.78;;;3.38;;
50092;SDS011;35974;47.752;10.290;2024-01-30T02:38:26;5.60;;;2.97;;
50092;SDS011;35974;47.752;10.290;2024-01-30T02:40:53;6.10;;;2.90;;
50092;SDS011;35974;47.752;10.290;2024-01-30T02:43:19;5.80;;;2.63;;
50092;SDS011;35974;47.752;10.290;2024-01-30T02:45:46;6.85;;;3.00;;
50092;SDS011;35974;47.752;10.290;2024-01-30T02:48:12;6.90;;;3.10;;
50092;SDS011;35974;47.752;10.290;2024-01-30T02:50:39;5.22;;;3.05;;
50092;SDS011;35974;47.752;10.290;2024-01-30T02:53:05;9.70;;;4.00;;
50092;SDS011;35974;47.752;10.290;2024-01-30T02:55:32;5.85;;;3.35;;
50092;SDS011;35974;47.752;10.290;2024-01-30T02:57:59;9.20;;;3.70;;
50092;SDS011;35974;47.752;10.290;2024-01-30T03:00:26;6.90;;;3.50;;
50092;SDS011;35974;47.752;10.290;2024-01-30T03:02:52;9.55;;;3.60;;
50092;SDS011;35974;47.752;10.290;2024-01-30T03:05:19;6.93;;;3.65;;
50092;SDS011;35974;47.752;10.290;2024-01-30T03:07:45;7.80;;;3.53;;
50092;SDS011;35974;47.752;10.290;2024-01-30T03:10:12;6.93;;;3.47;;
50092;SDS011;35974;47.752;10.290;2024-01-30T03:12:38;5.40;;;2.88;;
50092;SDS011;35974;47.752;10.290;2024-01-30T03:15:05;4.90;;;2.95;;
50092;SDS011;35974;47.752;10.290;2024-01-30T03:17:32;7.00;;;3.00;;
50092;SDS011;35974;47.752;10.290;2024-01-30T03:19:58;5.82;;;2.95;;
50092;SDS011;35974;47.752;10.290;2024-01-30T03:22:38;6.55;;;3.22;;
50092;SDS011;35974;47.752;10.290;2024-01-30T03:25:04;6.70;;;3.10;;
50092;SDS011;35974;47.752;10.290;2024-01-30T03:27:32;6.97;;;3.65;;
50092;SDS011;35974;47.752;10.290;2024-01-30T03:29:58;6.78;;;3.20;;
50092;SDS011;35974;47.752;10.290;2024-01-30T03:32:25;5.55;;;2.90;;
50092;SDS011;35974;47.752;10.290;2024-01-30T03:34:51;8.43;;;3.42;;
50092;SDS011;35974;47.752;10.290;2024-01-30T03:37:18;5.43;;;3.30;;
50092;SDS011;35974;47.752;10.290;2024-01-30T03:39:45;5.95;;;3.00;;
50092;SDS011;35974;47.752;10.290;2024-01-30T03:42:11;5.85;;;2.92;;
50092;SDS011;35974;47.752;10.290;2024-01-30T03:44:38;5.95;;;3.13;;
50092;SDS011;35974;47.752;10.290;2024-01-30T03:47:04;4.78;;;2.83;;
50092;SDS011;35974;47.752;10.290;2024-01-30T03:49:31;7.18;;;2.85;;
50092;SDS011;35974;47.752;10.290;2024-01-30T03:51:57;6.15;;;3.10;;
50092;SDS011;35974;47.752;10.290;2024-01-30T03:54:24;7.18;;;2.97;;
50092;SDS011;35974;47.752;10.290;2024-01-30T03:56:50;6.13;;;3.10;;
50092;SDS011;35974;47.752;10.290;2024-01-30T03:59:18;6.15;;;3.33;;
50092;SDS011;35974;47.752;10.290;2024-01-30T04:01:50;5.22;;;2.70;;
50092;SDS011;35974;47.752;10.290;2024-01-30T04:04:18;6.03;;;3.10;;
50092;SDS011;35974;47.752;10.290;2024-01-30T04:06:45;4.78;;;2.60;;
50092;SDS011;35974;47.752;10.290;2024-01-30T04:09:12;5.10;;;2.70;;
50092;SDS011;35974;47.752;10.290;2024-01-30T04:11:39;4.57;;;2.85;;
50092;SDS011;35974;47.752;10.290;2024-01-30T04:14:06;5.43;;;2.72;;
50092;SDS011;35974;47.752;10.290;2024-01-30T04:16:32;5.25;;;2.83;;
50092;SDS011;35974;47.752;10.290;2024-01-30T04:18:59;6.22;;;3.05;;
50092;SDS011;35974;47.752;10.290;2024-01-30T04:21:26;6.75;;;3.13;;
50092;SDS011;35974;47.752;10.290;2024-01-30T04:23:53;7.13;;;3.28;;
50092;SDS011;35974;47.752;10.290;2024-01-30T04:26:19;8.98;;;4.22;;
50092;SDS011;35974;47.752;10.290;2024-01-30T04:28:46;13.40;;;4.90;;
50092;SDS011;35974;47.752;10.290;2024-01-30T04:31:12;8.65;;;4.10;;
50092;SDS011;35974;47.752;10.290;2024-01-30T04:33:39;11.10;;;4.20;;
50092;SDS011;35974;47.752;10.290;2024-01-30T04:36:08;12.57;;;5.10;;
50092;SDS011;35974;47.752;10.290;2024-01-30T04:38:37;15.10;;;6.03;;
50092;SDS011;35974;47.752;10.290;2024-01-30T04:41:04;16.73;;;5.72;;
50092;SDS011;35974;47.752;10.290;2024-01-30T04:43:31;15.73;;;6.10;;
50092;SDS011;35974;47.752;10.290;2024-01-30T04:45:57;18.73;;;6.53;;
50092;SDS011;35974;47.752;10.290;2024-01-30T04:48:24;14.13;;;5.85;;
50092;SDS011;35974;47.752;10.290;2024-01-30T04:50:50;13.32;;;5.50;;
50092;SDS011;35974;47.752;10.290;2024-01-30T04:53:17;8.30;;;3.80;;
50092;SDS011;35974;47.752;10.290;2024-01-30T04:55:43;7.53;;;3.85;;
50092;SDS011;35974;47.752;10.290;2024-01-30T04:58:10;9.00;;;3.90;;
50092;SDS011;35974;47.752;10.290;2024-01-30T05:00:37;9.25;;;3.72;;
50092;SDS011;35974;47.752;10.290;2024-01-30T05:03:03;8.43;;;3.30;;
50092;SDS011;35974;47.752;10.290;2024-01-30T05:05:30;5.50;;;3.03;;
50092;SDS011;35974;47.752;10.290;2024-01-30T05:07:56;6.22;;;3.55;;
50092;SDS011;35974;47.752;10.290;2024-01-30T05:10:23;6.55;;;3.50;;
50092;SDS011;35974;47.752;10.290;2024-01-30T05:12:49;7.18;;;3.47;;
50092;SDS011;35974;47.752;10.290;2024-01-30T05:15:16;6.38;;;3.22;;
50092;SDS011;35974;47.752;10.290;2024-01-30T05:17:42;5.95;;;3.08;;
50092;SDS011;35974;47.752;10.290;2024-01-30T05:20:09;5.72;;;2.90;;
50092;SDS011;35974;47.752;10.290;2024-01-30T05:22:37;5.63;;;3.30;;
50092;SDS011;35974;47.752;10.290;2024-01-30T05:25:04;5.05;;;2.45;;
50092;SDS011;35974;47.752;10.290;2024-01-30T05:27:32;4.97;;;2.65;;
50092;SDS011;35974;47.752;10.290;2024-01-30T05:29:58;6.32;;;2.90;;
50092;SDS011;35974;47.752;10.290;2024-01-30T05:32:25;5.32;;;2.67;;
50092;SDS011;35974;47.752;10.290;2024-01-30T05:34:51;8.13;;;3.38;;
50092;SDS011;35974;47.752;10.290;2024-01-30T05:37:18;4.28;;;2.60;;
50092;SDS011;35974;47.752;10.290;2024-01-30T05:39:45;4.53;;;2.65;;
50092;SDS011;35974;47.752;10.290;2024-01-30T05:42:11;6.72;;;2.65;;
50092;SDS011;35974;47.752;10.290;2024-01-30T05:44:38;4.38;;;2.65;;
50092;SDS011;35974;47.752;10.290;2024-01-30T05:47:04;5.32;;;2.80;;
50092;SDS011;35974;47.752;10.290;2024-01-30T05:49:32;6.72;;;2.53;;
50092;SDS011;35974;47.752;10.290;2024-01-30T05:51:58;4.05;;;2.35;;
50092;SDS011;35974;47.752;10.290;2024-01-30T05:54:26;8.10;;;2.90;;
50092;SDS011;35974;47.752;10.290;2024-01-30T05:56:53;5.45;;;2.45;;
50092;SDS011;35974;47.752;10.290;2024-01-30T05:59:22;4.05;;;2.50;;
50092;SDS011;35974;47.752;10.290;2024-01-30T06:01:49;4.72;;;2.33;;
50092;SDS011;35974;47.752;10.290;2024-01-30T06:04:16;4.07;;;2.42;;
50092;SDS011;35974;47.752;10.290;2024-01-30T06:06:49;3.67;;;2.28;;
50092;SDS011;35974;47.752;10.290;2024-01-30T06:11:54;5.38;;;2.25;;
50092;SDS011;35974;47.752;10.290;2024-01-30T06:14:21;4.63;;;2.55;;
50092;SDS011;35974;47.752;10.290;2024-01-30T06:16:47;4.30;;;2.20;;
50092;SDS011;35974;47.752;10.290;2024-01-30T06:19:14;5.00;;;2.47;;
50092;SDS011;35974;47.752;10.290;2024-01-30T06:21:40;3.78;;;2.10;;
50092;SDS011;35974;47.752;10.290;2024-01-30T06:24:07;3.55;;;2.00;;
50092;SDS011;35974;47.752;10.290;2024-01-30T06:26:34;4.45;;;2.25;;
50092;SDS011;35974;47.752;10.290;2024-01-30T06:29:00;5.00;;;2.30;;
50092;SDS011;35974;47.752;10.290;2024-01-30T06:31:27;4.13;;;2.40;;
50092;SDS011;35974;47.752;10.290;2024-01-30T06:33:53;4.80;;;2.65;;
50092;SDS011;35974;47.752;10.290;2024-01-30T06:36:20;5.35;;;2.75;;
50092;SDS011;35974;47.752;10.290;2024-01-30T06:38:52;7.28;;;3.40;;
50092;SDS011;35974;47.752;10.290;2024-01-30T06:41:18;6.25;;;3.60;;
50092;SDS011;35974;47.752;10.290;2024-01-30T06:43:45;5.95;;;2.85;;
50092;SDS011;35974;47.752;10.290;2024-01-30T06:46:12;6.13;;;3.13;;
50092;SDS011;35974;47.752;10.290;2024-01-30T06:48:39;5.28;;;2.90;;
50092;SDS011;35974;47.752;10.290;2024-01-30T06:51:06;6.13;;;3.38;;
50092;SDS011;35974;47.752;10.290;2024-01-30T06:53:33;5.68;;;3.17;;
50092;SDS011;35974;47.752;10.290;2024-01-30T06:55:59;7.85;;;3.30;;
50092;SDS011;35974;47.752;10.290;2024-01-30T06:58:26;5.82;;;2.83;;
50092;SDS011;35974;47.752;10.290;2024-01-30T07:00:53;7.65;;;3.53;;
50092;SDS011;35974;47.752;10.290;2024-01-30T07:03:19;6.25;;;3.22;;
50092;SDS011;35974;47.752;10.290;2024-01-30T07:05:46;5.75;;;3.38;;
50092;SDS011;35974;47.752;10.290;2024-01-30T07:08:12;6.30;;;3.30;;
50092;SDS011;35974;47.752;10.290;2024-01-30T07:10:39;6.20;;;3.15;;
50092;SDS011;35974;47.752;10.290;2024-01-30T07:13:05;6.32;;;3.00;;
50092;SDS011;35974;47.752;10.290;2024-01-30T07:15:32;4.50;;;2.70;;
50092;SDS011;35974;47.752;10.290;2024-01-30T07:17:59;6.45;;;3.28;;
50092;SDS011;35974;47.752;10.290;2024-01-30T07:20:32;9.52;;;3.97;;
50092;SDS011;35974;47.752;10.290;2024-01-30T07:22:58;7.85;;;3.97;;
50092;SDS011;35974;47.752;10.290;2024-01-30T07:25:25;5.68;;;3.33;;
50092;SDS011;35974;47.752;10.290;2024-01-30T07:27:53;7.07;;;3.80;;
50092;SDS011;35974;47.752;10.290;2024-01-30T07:30:20;7.95;;;3.35;;
50092;SDS011;35974;47.752;10.290;2024-01-30T07:32:47;7.88;;;3.33;;
50092;SDS011;35974;47.752;10.290;2024-01-30T07:35:14;7.22;;;3.63;;
50092;SDS011;35974;47.752;10.290;2024-01-30T07:37:40;6.95;;;3.42;;
50092;SDS011;35974;47.752;10.290;2024-01-30T07:40:07;9.40;;;4.10;;
50092;SDS011;35974;47.752;10.290;2024-01-30T07:42:34;12.50;;;4.57;;
50092;SDS011;35974;47.752;10.290;2024-01-30T07:45:01;8.18;;;3.90;;
50092;SDS011;35974;47.752;10.290;2024-01-30T07:47:28;8.52;;;4.25;;
50092;SDS011;35974;47.752;10.290;2024-01-30T07:49:55;9.88;;;3.78;;
50092;SDS011;35974;47.752;10.290;2024-01-30T07:52:21;7.05;;;3.42;;
50092;SDS011;35974;47.752;10.290;2024-01-30T07:54:48;5.47;;;3.00;;
50092;SDS011;35974;47.752;10.290;2024-01-30T07:57:15;7.35;;;4.18;;
50092;SDS011;35974;47.752;10.290;2024-01-30T07:59:44;5.45;;;3.22;;
50092;SDS011;35974;47.752;10.290;2024-01-30T08:02:12;7.25;;;3.97;;
50092;SDS011;35974;47.752;10.290;2024-01-30T08:04:39;6.57;;;3.88;;
50092;SDS011;35974;47.752;10.290;2024-01-30T08:07:06;9.30;;;4.00;;
50092;SDS011;35974;47.752;10.290;2024-01-30T08:09:32;6.38;;;3.63;;
50092;SDS011;35974;47.752;10.290;2024-01-30T08:12:00;7.78;;;4.70;;
50092;SDS011;35974;47.752;10.290;2024-01-30T08:14:26;11.40;;;5.50;;
50092;SDS011;35974;47.752;10.290;2024-01-30T08:16:53;11.70;;;5.85;;
50092;SDS011;35974;47.752;10.290;2024-01-30T08:19:19;10.50;;;5.63;;
50092;SDS011;35974;47.752;10.290;2024-01-30T08:21:46;11.45;;;6.05;;
50092;SDS011;35974;47.752;10.290;2024-01-30T08:24:13;10.45;;;5.90;;
50092;SDS011;35974;47.752;10.290;2024-01-30T08:26:39;9.70;;;6.03;;
50092;SDS011;35974;47.752;10.290;2024-01-30T08:29:06;11.68;;;6.97;;
50092;SDS011;35974;47.752;10.290;2024-01-30T08:31:32;12.80;;;6.78;;
50092;SDS011;35974;47.752;10.290;2024-01-30T08:33:59;11.63;;;6.22;;
50092;SDS011;35974;47.752;10.290;2024-01-30T08:36:26;13.43;;;6.40;;
50092;SDS011;35974;47.752;10.290;2024-01-30T08:38:52;9.07;;;5.50;;
50092;SDS011;35974;47.752;10.290;2024-01-30T08:41:25;8.82;;;5.43;;
50092;SDS011;35974;47.752;10.290;2024-01-30T08:43:52;9.25;;;5.15;;
50092;SDS011;35974;47.752;10.290;2024-01-30T08:46:18;8.50;;;5.57;;
50092;SDS011;35974;47.752;10.290;2024-01-30T08:48:45;8.55;;;5.13;;
50092;SDS011;35974;47.752;10.290;2024-01-30T08:51:14;10.50;;;5.65;;
50092;SDS011;35974;47.752;10.290;2024-01-30T08:53:41;10.25;;;6.03;;
50092;SDS011;35974;47.752;10.290;2024-01-30T08:56:08;11.52;;;6.65;;
50092;SDS011;35974;47.752;10.290;2024-01-30T08:58:34;10.82;;;6.00;;
50092;SDS011;35974;47.752;10.290;2024-01-30T09:01:01;13.82;;;5.53;;
50092;SDS011;35974;47.752;10.290;2024-01-30T09:03:30;9.38;;;5.68;;
50092;SDS011;35974;47.752;10.290;2024-01-30T09:05:56;11.57;;;6.13;;
50092;SDS011;35974;47.752;10.290;2024-01-30T09:08:23;10.52;;;5.72;;
50092;SDS011;35974;47.752;10.290;2024-01-30T09:10:50;8.88;;;5.15;;
50092;SDS011;35974;47.752;10.290;2024-01-30T09:13:16;14.48;;;6.03;;
50092;SDS011;35974;47.752;10.290;2024-01-30T09:15:45;9.88;;;5.70;;
50092;SDS011;35974;47.752;10.290;2024-01-30T09:18:12;9.73;;;5.63;;
50092;SDS011;35974;47.752;10.290;2024-01-30T09:20:39;10.32;;;6.25;;
50092;SDS011;35974;47.752;10.290;2024-01-30T09:23:05;10.30;;;6.20;;
50092;SDS011;35974;47.752;10.290;2024-01-30T09:25:32;13.25;;;6.03;;
50092;SDS011;35974;47.752;10.290;2024-01-30T09:27:59;12.25;;;6.00;;
50092;SDS011;35974;47.752;10.290;2024-01-30T09:30:25;14.60;;;6.13;;
50092;SDS011;35974;47.752;10.290;2024-01-30T09:32:52;10.10;;;5.85;;
50092;SDS011;35974;47.752;10.290;2024-01-30T09:35:18;9.43;;;5.07;;
50092;SDS011;35974;47.752;10.290;2024-01-30T09:37:46;10.70;;;5.40;;
50092;SDS011;35974;47.752;10.290;2024-01-30T09:40:12;20.27;;;7.80;;
50092;SDS011;35974;47.752;10.290;2024-01-30T09:42:39;12.88;;;6.05;;
50092;SDS011;35974;47.752;10.290;2024-01-30T09:45:07;10.65;;;5.68;;
50092;SDS011;35974;47.752;10.290;2024-01-30T09:47:39;10.90;;;6.10;;
50092;SDS011;35974;47.752;10.290;2024-01-30T09:50:10;10.32;;;5.35;;
50092;SDS011;35974;47.752;10.290;2024-01-30T09:52:38;11.05;;;5.43;;
50092;SDS011;35974;47.752;10.290;2024-01-30T09:55:05;9.55;;;5.13;;
50092;SDS011;35974;47.752;10.290;2024-01-30T09:57:36;7.32;;;4.57;;
50092;SDS011;35974;47.752;10.290;2024-01-30T10:00:03;11.10;;;5.15;;
50092;SDS011;35974;47.752;10.290;2024-01-30T10:02:33;8.75;;;5.30;;
50092;SDS011;35974;47.752;10.290;2024-01-30T10:05:00;12.00;;;5.18;;
50092;SDS011;35974;47.752;10.290;2024-01-30T10:07:27;11.18;;;4.90;;
50092;SDS011;35974;47.752;10.290;2024-01-30T10:09:53;10.05;;;5.00;;
50092;SDS011;35974;47.752;10.290;2024-01-30T10:12:23;8.13;;;4.60;;
50092;SDS011;35974;47.752;10.290;2024-01-30T10:14:51;8.95;;;4.55;;
50092;SDS011;35974;47.752;10.290;2024-01-30T10:17:18;8.18;;;4.88;;
50092;SDS011;35974;47.752;10.290;2024-01-30T10:19:59;12.40;;;4.93;;
50092;SDS011;35974;47.752;10.290;2024-01-30T10:22:26;8.90;;;4.40;;
50092;SDS011;35974;47.752;10.290;2024-01-30T10:24:52;9.55;;;4.72;;
50092;SDS011;35974;47.752;10.290;2024-01-30T10:27:23;9.77;;;5.35;;
50092;SDS011;35974;47.752;10.290;2024-01-30T10:29:52;10.18;;;4.80;;
50092;SDS011;35974;47.752;10.290;2024-01-30T10:32:19;12.43;;;4.93;;
50092;SDS011;35974;47.752;10.290;2024-01-30T10:34:46;9.00;;;5.38;;
50092;SDS011;35974;47.752;10.290;2024-01-30T10:37:12;8.40;;;4.78;;
50092;SDS011;35974;47.752;10.290;2024-01-30T10:39:42;14.30;;;4.78;;
50092;SDS011;35974;47.752;10.290;2024-01-30T10:42:13;8.70;;;5.13;;
50092;SDS011;35974;47.752;10.290;2024-01-30T10:44:44;9.75;;;5.30;;
50092;SDS011;35974;47.752;10.290;2024-01-30T10:47:26;11.75;;;5.30;;
50092;SDS011;35974;47.752;10.290;2024-01-30T10:49:54;8.98;;;5.10;;
50092;SDS011;35974;47.752;10.290;2024-01-30T10:52:25;9.13;;;5.00;;
50092;SDS011;35974;47.752;10.290;2024-01-30T10:54:54;8.80;;;5.13;;
50092;SDS011;35974;47.752;10.290;2024-01-30T10:57:25;9.52;;;4.78;;
50092;SDS011;35974;47.752;10.290;2024-01-30T10:59:59;9.57;;;4.78;;
50092;SDS011;35974;47.752;10.290;2024-01-30T11:02:27;11.07;;;4.72;;
50092;SDS011;35974;47.752;10.290;2024-01-30T11:04:58;7.28;;;4.32;;
50092;SDS011;35974;47.752;10.290;2024-01-30T11:07:29;8.35;;;4.70;;
50092;SDS011;35974;47.752;10.290;2024-01-30T11:10:00;7.55;;;4.32;;
50092;SDS011;35974;47.752;10.290;2024-01-30T11:12:31;10.98;;;4.63;;
50092;SDS011;35974;47.752;10.290;2024-01-30T11:15:05;10.70;;;4.18;;
50092;SDS011;35974;47.752;10.290;2024-01-30T11:17:42;8.20;;;4.22;;
50092;SDS011;35974;47.752;10.290;2024-01-30T11:20:20;9.63;;;3.92;;
50092;SDS011;35974;47.752;10.290;2024-01-30T11:22:57;5.53;;;3.85;;
50092;SDS011;35974;47.752;10.290;2024-01-30T11:25:25;8.88;;;4.00;;
50092;SDS011;35974;47.752;10.290;2024-01-30T11:27:53;12.75;;;4.63;;
50092;SDS011;35974;47.752;10.290;2024-01-30T11:30:30;8.40;;;4.18;;
50092;SDS011;35974;47.752;10.290;2024-01-30T11:35:35;7.63;;;3.60;;
50092;SDS011;35974;47.752;10.290;2024-01-30T11:38:03;7.00;;;3.90;;
50092;SDS011;35974;47.752;10.290;2024-01-30T11:40:31;6.13;;;3.60;;
50092;SDS011;35974;47.752;10.290;2024-01-30T11:43:00;10.90;;;4.60;;
50092;SDS011;35974;47.752;10.290;2024-01-30T11:45:28;8.02;;;4.20;;
50092;SDS011;35974;47.752;10.290;2024-01-30T11:47:55;8.13;;;4.10;;
50092;SDS011;35974;47.752;10.290;2024-01-30T11:50:22;5.90;;;3.60;;
50092;SDS011;35974;47.752;10.290;2024-01-30T11:52:49;7.45;;;3.60;;
50092;SDS011;35974;47.752;10.290;2024-01-30T11:55:16;8.30;;;3.63;;
50092;SDS011;35974;47.752;10.290;2024-01-30T11:57:44;5.70;;;3.40;;
50092;SDS011;35974;47.752;10.290;2024-01-30T12:00:14;5.32;;;3.28;;
50092;SDS011;35974;47.752;10.290;2024-01-30T12:02:52;5.57;;;3.53;;
50092;SDS011;35974;47.752;10.290;2024-01-30T12:05:22;5.07;;;2.72;;
50092;SDS011;35974;47.752;10.290;2024-01-30T12:07:49;3.60;;;2.70;;
50092;SDS011;35974;47.752;10.290;2024-01-30T12:10:18;5.60;;;2.70;;
50092;SDS011;35974;47.752;10.290;2024-01-30T12:12:45;4.93;;;2.80;;
50092;SDS011;35974;47.752;10.290;2024-01-30T12:15:13;3.83;;;2.42;;
50092;SDS011;35974;47.752;10.290;2024-01-30T12:17:40;5.43;;;2.92;;
50092;SDS011;35974;47.752;10.290;2024-01-30T12:20:12;6.13;;;2.75;;
50092;SDS011;35974;47.752;10.290;2024-01-30T12:22:50;5.75;;;2.83;;
50092;SDS011;35974;47.752;10.290;2024-01-30T12:25:17;5.25;;;2.67;;
50092;SDS011;35974;47.752;10.290;2024-01-30T12:27:47;4.45;;;2.63;;
50092;SDS011;35974;47.752;10.290;2024-01-30T12:30:19;3.30;;;2.40;;
50092;SDS011;35974;47.752;10.290;2024-01-30T12:32:50;7.47;;;2.75;;
50092;SDS011;35974;47.752;10.290;2024-01-30T12:35:18;8.05;;;3.22;;
50092;SDS011;35974;47.752;10.290;2024-01-30T12:37:47;4.95;;;2.65;;
50092;SDS011;35974;47.752;10.290;2024-01-30T12:40:14;4.80;;;2.92;;
50092;SDS011;35974;47.752;10.290;2024-01-30T12:42:42;6.97;;;2.95;;
50092;SDS011;35974;47.752;10.290;2024-01-30T12:45:09;5.82;;;2.88;;
50092;SDS011;35974;47.752;10.290;2024-01-30T12:47:36;4.18;;;2.40;;
50092;SDS011;35974;47.752;10.290;2024-01-30T12:50:03;4.10;;;2.75;;
50092;SDS011;35974;47.752;10.290;2024-01-30T12:52:30;4.47;;;2.40;;
50092;SDS011;35974;47.752;10.290;2024-01-30T12:54:56;4.88;;;2.33;;
50092;SDS011;35974;47.752;10.290;2024-01-30T20:33:52;9.35;;;5.28;;
50092;SDS011;35974;47.752;10.290;2024-01-30T20:36:18;8.63;;;5.72;;
50092;SDS011;35974;47.752;10.290;2024-01-30T20:38:45;10.02;;;5.85;;
50092;SDS011;35974;47.752;10.290;2024-01-30T20:41:12;9.02;;;5.18;;
50092;SDS011;35974;47.752;10.290;2024-01-30T20:43:41;10.77;;;5.88;;
50092;SDS011;35974;47.752;10.290;2024-01-30T20:46:10;10.07;;;5.97;;
50092;SDS011;35974;47.752;10.290;2024-01-30T20:48:40;10.88;;;5.68;;
50092;SDS011;35974;47.752;10.290;2024-01-30T20:51:12;32.08;;;10.95;;
50092;SDS011;35974;47.752;10.290;2024-01-30T20:53:40;15.55;;;6.88;;
50092;SDS011;35974;47.752;10.290;2024-01-30T20:56:10;12.95;;;6.32;;
50092;SDS011;35974;47.752;10.290;2024-01-30T20:58:36;11.18;;;6.38;;
50092;SDS011;35974;47.752;10.290;2024-01-30T21:01:03;11.38;;;6.28;;
50092;SDS011;35974;47.752;10.290;2024-01-30T21:03:30;11.60;;;6.10;;
50092;SDS011;35974;47.752;10.290;2024-01-30T21:05:58;9.45;;;6.07;;
50092;SDS011;35974;47.752;10.290;2024-01-30T21:08:28;11.05;;;6.32;;
50092;SDS011;35974;47.752;10.290;2024-01-30T21:10:55;10.32;;;6.70;;
50092;SDS011;35974;47.752;10.290;2024-01-30T21:13:22;11.95;;;7.03;;
50092;SDS011;35974;47.752;10.290;2024-01-30T21:15:49;11.55;;;6.70;;
50092;SDS011;35974;47.752;10.290;2024-01-30T21:18:15;12.18;;;7.60;;
50092;SDS011;35974;47.752;10.290;2024-01-30T21:20:42;12.38;;;7.35;;
50092;SDS011;35974;47.752;10.290;2024-01-30T21:23:10;13.65;;;7.75;;
50092;SDS011;35974;47.752;10.290;2024-01-30T21:25:38;13.15;;;7.05;;
50092;SDS011;35974;47.752;10.290;2024-01-30T21:28:06;12.23;;;6.60;;
50092;SDS011;35974;47.752;10.290;2024-01-30T21:30:33;11.43;;;7.15;;
50092;SDS011;35974;47.752;10.290;2024-01-30T21:33:01;13.88;;;7.20;;
50092;SDS011;35974;47.752;10.290;2024-01-30T21:35:28;11.65;;;6.60;;
50092;SDS011;35974;47.752;10.290;2024-01-30T21:37:54;11.82;;;6.88;;
50092;SDS011;35974;47.752;10.290;2024-01-30T21:40:23;11.88;;;6.97;;
50092;SDS011;35974;47.752;10.290;2024-01-30T21:42:50;11.68;;;6.65;;
50092;SDS011;35974;47.752;10.290;2024-01-30T21:45:17;10.38;;;5.60;;
50092;SDS011;35974;47.752;10.290;2024-01-30T21:47:46;11.27;;;6.28;;
50092;SDS011;35974;47.752;10.290;2024-01-30T21:50:13;11.23;;;7.03;;
50092;SDS011;35974;47.752;10.290;2024-01-30T21:52:40;12.13;;;6.65;;
50092;SDS011;35974;47.752;10.290;2024-01-30T21:55:08;13.73;;;7.35;;
50092;SDS011;35974;47.752;10.290;2024-01-30T21:57:35;14.27;;;7.25;;
50092;SDS011;35974;47.752;10.290;2024-01-30T22:00:01;15.90;;;7.88;;
50092;SDS011;35974;47.752;10.290;2024-01-30T22:02:29;12.38;;;7.13;;
50092;SDS011;35974;47.752;10.290;2024-01-30T22:04:55;10.63;;;6.07;;
50092;SDS011;35974;47.752;10.290;2024-01-30T22:07:22;10.98;;;6.53;;
50092;SDS011;35974;47.752;10.290;2024-01-30T22:09:49;9.40;;;6.10;;
50092;SDS011;35974;47.752;10.290;2024-01-30T22:12:15;10.73;;;6.60;;
50092;SDS011;35974;47.752;10.290;2024-01-30T22:14:42;13.35;;;6.10;;